Time;durP1;ratioP1;P1;durP2;ratioP2;P2;SDS_P1;SDS_P2;PMS_P1;PMS_P2;Temp;Humidity;BMP_temperature;BMP_pressure;BME280_temperature;BME280_humidity;BME280_pressure;Samples;Min_cycle;Max_cycle;Signal;HPM_P1;HPM_P2
2021/04/11 00:00:56;;;;;;;2.75;0.68;;;13.10;43.80;;;;;;4957781;28;20027;-74
2021/04/11 00:03:24;;;;;;;3.88;1.08;;;13.00;43.80;;;;;;4975135;28;20368;-75
2021/04/11 00:05:50;;;;;;;3.35;0.73;;;13.10;44.00;;;;;;4975352;28;20491;-74
2021/04/11 00:08:17;;;;;;;2.55;0.75;;;13.10;44.00;;;;;;4975161;28;20101;-74
2021/04/11 00:10:46;;;;;;;1.85;0.70;;;13.10;44.20;;;;;;4974954;28;20027;-74
2021/04/11 00:13:18;;;;;;;1.65;0.70;;;13.00;44.20;;;;;;4957467;28;20479;-75
2021/04/11 00:15:44;;;;;;;0.75;0.75;;;13.00;44.20;;;;;;4957532;28;20038;-73
2021/04/11 00:18:09;;;;;;;2.20;0.95;;;13.00;44.30;;;;;;4957470;28;20026;-73
2021/04/11 00:20:35;;;;;;;1.63;0.88;;;12.90;44.50;;;;;;4957371;28;20041;-74
2021/04/11 00:23:01;;;;;;;3.30;0.70;;;12.90;44.60;;;;;;4974802;28;20042;-75
2021/04/11 00:25:31;;;;;;;2.92;1.15;;;12.80;44.80;;;;;;4957327;28;20037;-74
2021/04/11 00:27:58;;;;;;;2.63;0.65;;;12.80;44.90;;;;;;4974770;28;20019;-74
2021/04/11 00:30:25;;;;;;;2.92;0.85;;;12.90;45.10;;;;;;4974647;28;20129;-74
2021/04/11 00:32:54;;;;;;;2.60;0.65;;;12.90;45.10;;;;;;4974743;28;20404;-74
2021/04/11 00:35:19;;;;;;;2.08;0.70;;;12.80;45.10;;;;;;4973642;28;20487;-74
2021/04/11 00:37:45;;;;;;;2.40;0.50;;;12.90;45.30;;;;;;4974400;28;20085;-75
2021/04/11 00:40:20;;;;;;;2.30;0.75;;;12.80;45.20;;;;;;4957072;28;20039;-75
2021/04/11 00:42:51;;;;;;;1.88;0.70;;;12.80;45.20;;;;;;4974587;28;20015;-75
2021/04/11 00:45:27;;;;;;;2.13;0.80;;;12.90;45.40;;;;;;4974447;28;20034;-75
2021/04/11 00:47:54;;;;;;;2.45;0.88;;;12.90;45.30;;;;;;4974469;28;20015;-75
2021/04/11 00:50:20;;;;;;;2.03;0.77;;;12.80;45.30;;;;;;4974334;28;20121;-75
2021/04/11 00:52:46;;;;;;;1.52;0.93;;;12.80;45.50;;;;;;4974567;28;20046;-75
2021/04/11 00:55:14;;;;;;;1.55;1.13;;;12.80;45.90;;;;;;4974287;28;20069;-75
2021/04/11 00:57:42;;;;;;;1.98;1.02;;;12.80;46.10;;;;;;4975326;28;20440;-76
2021/04/11 01:00:08;;;;;;;3.45;1.10;;;12.80;46.30;;;;;;4975711;28;20027;-76
2021/04/11 01:02:36;;;;;;;1.45;1.00;;;12.80;46.60;;;;;;4974421;28;20097;-73
2021/04/11 01:05:01;;;;;;;3.90;1.40;;;12.70;46.70;;;;;;4974232;28;20031;-72
2021/04/11 01:07:28;;;;;;;4.03;1.13;;;12.70;46.90;;;;;;4974361;28;20053;-73
2021/04/11 01:09:54;;;;;;;1.85;1.05;;;12.70;46.90;;;;;;4974206;28;20076;-73
2021/04/11 01:12:23;;;;;;;2.03;1.10;;;12.60;47.00;;;;;;4974257;28;20026;-74
2021/04/11 01:14:49;;;;;;;3.83;1.60;;;12.60;47.10;;;;;;4974246;28;20030;-74
2021/04/11 01:17:19;;;;;;;10.75;2.70;;;12.60;47.60;;;;;;4974112;28;20380;-74
2021/04/11 01:19:45;;;;;;;6.90;2.22;;;12.60;47.60;;;;;;4956658;28;20030;-74
2021/04/11 01:22:35;;;;;;;4.43;1.75;;;12.50;47.90;;;;;;4974153;28;20395;-74
2021/04/11 01:25:09;;;;;;;3.65;1.45;;;12.50;48.40;;;;;;4956655;28;20027;-73
2021/04/11 01:27:36;;;;;;;3.47;1.42;;;12.40;48.80;;;;;;4973921;28;20031;-74
2021/04/11 01:30:25;;;;;;;2.35;1.10;;;12.30;49.20;;;;;;4973947;28;20039;-74
2021/04/11 01:32:51;;;;;;;2.53;1.00;;;12.20;49.40;;;;;;4974108;28;20027;-75
2021/04/11 01:35:18;;;;;;;4.80;1.30;;;12.20;49.70;;;;;;4974015;28;20082;-74
2021/04/11 01:37:45;;;;;;;1.70;0.90;;;12.10;50.00;;;;;;4973809;28;20043;-75
2021/04/11 01:40:14;;;;;;;0.95;0.75;;;12.10;50.30;;;;;;4973901;28;20019;-74
2021/04/11 01:42:41;;;;;;;3.20;0.98;;;12.10;50.40;;;;;;4973987;28;20027;-74
2021/04/11 01:45:07;;;;;;;4.03;0.98;;;12.00;50.50;;;;;;4973797;28;20054;-74
2021/04/11 01:47:33;;;;;;;2.78;1.23;;;11.90;50.60;;;;;;4975810;28;20109;-74
2021/04/11 01:49:59;;;;;;;1.88;0.85;;;11.90;50.80;;;;;;4960023;28;20574;-74
2021/04/11 01:52:29;;;;;;;1.27;1.08;;;11.90;51.00;;;;;;4977983;28;20109;-74
2021/04/11 01:54:56;;;;;;;1.60;0.90;;;11.90;51.00;;;;;;4977564;28;20034;-74
2021/04/11 01:57:41;;;;;;;2.53;1.00;;;11.80;51.10;;;;;;4977462;28;20495;-74
2021/04/11 02:00:14;;;;;;;2.85;0.90;;;11.90;51.20;;;;;;4976989;28;20043;-74
2021/04/11 02:02:40;;;;;;;1.15;0.88;;;11.80;51.10;;;;;;4977520;28;20384;-74
2021/04/11 02:05:10;;;;;;;1.77;0.90;;;11.80;51.10;;;;;;4977264;28;20086;-74
2021/04/11 02:07:36;;;;;;;2.95;0.82;;;11.80;51.20;;;;;;4960057;28;20026;-74
2021/04/11 02:10:07;;;;;;;2.50;0.82;;;11.80;51.20;;;;;;4977099;28;20062;-74
2021/04/11 02:12:34;;;;;;;1.35;0.73;;;11.80;51.10;;;;;;4977200;28;20100;-75
2021/04/11 02:15:00;;;;;;;2.63;1.17;;;11.90;51.30;;;;;;4977137;28;20027;-75
2021/04/11 02:17:25;;;;;;;4.38;1.00;;;11.90;51.20;;;;;;4977129;28;20018;-74
2021/04/11 02:19:52;;;;;;;3.03;1.15;;;11.90;51.00;;;;;;4977125;28;20479;-75
2021/04/11 02:22:27;;;;;;;4.43;1.25;;;11.90;51.10;;;;;;4977028;28;20029;-75
2021/04/11 02:24:53;;;;;;;1.10;0.93;;;11.90;51.10;;;;;;4976956;28;20492;-74
2021/04/11 02:27:20;;;;;;;2.17;1.00;;;11.90;51.20;;;;;;4976838;28;20487;-74
2021/04/11 02:29:46;;;;;;;2.42;0.98;;;11.80;51.20;;;;;;4976774;28;20035;-74
2021/04/11 02:32:13;;;;;;;3.78;1.05;;;11.80;51.20;;;;;;4976922;28;20037;-74
2021/04/11 02:34:38;;;;;;;2.17;0.70;;;11.90;50.70;;;;;;4976812;28;20054;-74
2021/04/11 02:37:10;;;;;;;2.70;0.90;;;11.90;50.80;;;;;;4976640;28;20511;-74
2021/04/11 02:39:38;;;;;;;3.17;1.13;;;11.90;50.90;;;;;;4976673;28;20035;-74
2021/04/11 02:42:08;;;;;;;3.42;0.90;;;11.80;50.90;;;;;;4976625;28;20026;-74
2021/04/11 02:44:38;;;;;;;2.30;0.90;;;11.90;51.10;;;;;;4976545;28;20034;-74
2021/04/11 02:47:08;;;;;;;2.55;0.82;;;11.80;51.00;;;;;;4976571;28;20459;-74
2021/04/11 02:49:34;;;;;;;1.83;1.15;;;11.90;51.00;;;;;;4976544;28;20031;-74
2021/04/11 02:52:04;;;;;;;1.50;0.93;;;11.80;51.40;;;;;;4976616;28;20049;-74
2021/04/11 02:54:30;;;;;;;1.67;1.10;;;11.90;51.70;;;;;;4958895;28;20027;-74
2021/04/11 02:56:57;;;;;;;2.80;1.23;;;11.80;51.60;;;;;;4976351;28;20073;-74
2021/04/11 02:59:24;;;;;;;3.85;1.33;;;11.80;51.50;;;;;;4975227;28;20101;-74
2021/04/11 03:01:52;;;;;;;3.97;1.40;;;11.80;51.30;;;;;;4976489;28;20054;-74
2021/04/11 03:04:20;;;;;;;3.42;1.10;;;11.80;52.00;;;;;;4976173;28;20098;-74
2021/04/11 03:06:55;;;;;;;2.97;1.10;;;11.90;51.50;;;;;;4958381;28;20031;-74
2021/04/11 03:09:24;;;;;;;;;;;11.80;51.40;;;;;;4976498;28;20089;-74
2021/04/11 03:11:52;;;;;;;1.92;0.85;;;11.90;51.30;;;;;;4976198;28;19956;-74
2021/04/11 03:14:20;;;;;;;3.97;1.20;;;11.90;51.40;;;;;;4976073;28;20035;-74
2021/04/11 03:16:47;;;;;;;2.80;1.45;;;11.80;51.50;;;;;;4976121;28;20023;-74
2021/04/11 03:19:19;;;;;;;2.03;1.13;;;11.80;51.70;;;;;;4975980;28;20027;-74
2021/04/11 03:21:45;;;;;;;3.92;1.38;;;11.80;51.90;;;;;;4987261;28;20435;-74
2021/04/11 03:24:11;;;;;;;2.75;1.45;;;11.80;51.60;;;;;;4996890;28;20754;-74
2021/04/11 03:26:38;;;;;;;2.67;1.33;;;11.80;51.50;;;;;;4989979;28;20031;-73
2021/04/11 03:29:08;;;;;;;2.60;1.40;;;11.90;51.70;;;;;;4976141;28;20031;-73
2021/04/11 03:31:40;;;;;;;2.38;1.08;;;11.90;51.70;;;;;;4976003;28;20030;-73
2021/04/11 03:34:07;;;;;;;2.05;1.20;;;11.90;51.50;;;;;;4975837;28;20046;-73
2021/04/11 03:36:35;;;;;;;6.65;1.20;;;11.90;51.30;;;;;;4975555;28;20555;-73
2021/04/11 03:39:03;;;;;;;4.90;1.23;;;12.00;51.00;;;;;;4975621;28;20069;-73
2021/04/11 03:41:31;;;;;;;5.10;1.00;;;12.10;51.80;;;;;;4974910;28;20022;-74
2021/04/11 03:44:00;;;;;;;2.05;0.82;;;12.10;50.70;;;;;;4975464;28;20506;-73
2021/04/11 03:46:52;;;;;;;2.40;1.05;;;12.20;50.20;;;;;;4975540;28;20435;-73
2021/04/11 03:49:35;;;;;;;2.58;1.10;;;12.30;49.90;;;;;;4975484;28;20147;-73
2021/04/11 03:52:08;;;;;;;5.30;2.22;;;12.40;49.60;;;;;;4975423;28;20023;-74
2021/04/11 03:54:40;;;;;;;8.60;4.70;;;12.50;49.40;;;;;;4975262;28;20061;-74
2021/04/11 03:57:18;;;;;;;6.25;3.22;;;12.50;49.50;;;;;;4957838;28;20026;-73
2021/04/11 03:59:48;;;;;;;5.82;3.38;;;12.40;49.70;;;;;;4975314;28;20033;-75
2021/04/11 04:02:17;;;;;;;6.57;2.97;;;12.40;49.70;;;;;;4975108;28;20169;-73
2021/04/11 04:04:44;;;;;;;2.92;1.35;;;12.30;49.80;;;;;;4975120;28;20053;-73
2021/04/11 04:07:16;;;;;;;1.52;0.80;;;12.40;49.50;;;;;;4975134;28;20042;-74
2021/04/11 04:09:47;;;;;;;8.18;2.10;;;12.40;49.20;;;;;;4975008;28;20369;-74
2021/04/11 04:12:53;;;;;;;4.15;1.65;;;12.40;49.40;;;;;;4975251;28;20055;-74
2021/04/11 04:16:05;;;;;;;2.65;1.30;;;12.40;49.60;;;;;;4974918;28;20391;-73
2021/04/11 04:19:08;;;;;;;2.17;0.90;;;12.40;49.60;;;;;;4954057;28;20622;-76
2021/04/11 04:21:53;;;;;;;4.13;1.10;;;12.30;49.50;;;;;;4961875;28;20039;-73
2021/04/11 04:24:46;;;;;;;1.15;0.98;;;12.30;49.80;;;;;;4974776;28;20046;-73
2021/04/11 04:27:25;;;;;;;2.42;1.00;;;12.30;50.00;;;;;;4974725;28;20509;-73
2021/04/11 04:30:16;;;;;;;1.92;1.30;;;12.20;50.10;;;;;;4974688;28;20034;-73
2021/04/11 04:33:19;;;;;;;2.83;1.23;;;12.20;50.20;;;;;;4957289;28;20054;-74
2021/04/11 04:36:16;;;;;;;3.35;1.20;;;12.20;50.50;;;;;;4974373;28;20488;-73
2021/04/11 04:39:01;;;;;;;2.30;1.10;;;12.10;50.80;;;;;;4976576;28;20545;-74
2021/04/11 04:41:35;;;;;;;2.55;1.02;;;12.10;51.00;;;;;;4975575;28;20030;-72
2021/04/11 04:44:17;;;;;;;2.65;1.30;;;12.00;51.10;;;;;;4974724;28;20061;-73
2021/04/11 04:46:55;;;;;;;3.08;1.30;;;11.90;51.60;;;;;;4974419;28;20101;-72
2021/04/11 04:49:33;;;;;;;1.60;1.00;;;11.90;52.10;;;;;;4974348;28;20507;-72
2021/04/11 04:52:21;;;;;;;1.92;1.30;;;11.80;52.50;;;;;;4974442;28;20472;-72
2021/04/11 04:54:49;;;;;;;2.53;1.45;;;11.80;52.80;;;;;;4974236;28;20488;-73
2021/04/11 04:57:23;;;;;;;4.50;1.83;;;11.70;53.10;;;;;;4974356;28;20038;-72
2021/04/11 05:00:00;;;;;;;3.42;1.70;;;11.60;53.20;;;;;;4974381;28;20027;-72
2021/04/11 05:02:33;;;;;;;1.92;1.42;;;11.60;53.60;;;;;;4974281;28;20026;-73
2021/04/11 05:05:02;;;;;;;2.42;1.48;;;11.50;53.80;;;;;;4974189;28;20476;-73
2021/04/11 05:07:32;;;;;;;2.53;1.52;;;11.50;53.80;;;;;;4974200;28;20014;-73
2021/04/11 05:10:05;;;;;;;4.57;1.30;;;11.50;53.90;;;;;;4974083;28;20034;-73
2021/04/11 05:13:12;;;;;;;5.32;1.60;;;11.50;54.10;;;;;;4974233;28;20061;-72
2021/04/11 05:15:43;;;;;;;2.78;1.20;;;11.50;54.20;;;;;;4973413;28;20592;-72
2021/04/11 05:18:18;;;;;;;3.35;1.83;;;11.50;54.30;;;;;;4974065;28;20015;-72
2021/04/11 05:20:48;;;;;;;2.47;1.13;;;11.50;54.30;;;;;;4974230;28;20488;-72
2021/04/11 05:23:40;;;;;;;3.15;1.27;;;11.40;54.20;;;;;;4977313;28;20078;-73
2021/04/11 05:26:12;;;;;;;2.45;1.38;;;11.40;54.10;;;;;;4978002;28;20073;-73
2021/04/11 05:28:44;;;;;;;2.60;1.30;;;11.40;54.00;;;;;;4977786;28;20029;-73
2021/04/11 05:31:15;;;;;;;2.83;1.23;;;11.40;54.00;;;;;;4977815;28;20038;-72
2021/04/11 05:33:42;;;;;;;4.28;1.95;;;11.50;54.00;;;;;;4977949;28;20031;-73
2021/04/11 05:36:15;;;;;;;2.50;1.60;;;11.50;53.90;;;;;;4977826;28;20081;-73
2021/04/11 05:38:59;;;;;;;4.03;1.70;;;11.50;53.80;;;;;;4977949;28;20022;-73
2021/04/11 05:41:40;;;;;;;4.20;2.47;;;11.60;53.90;;;;;;4977755;28;20026;-73
2021/04/11 05:44:19;;;;;;;5.63;1.77;;;11.60;54.60;;;;;;4977863;28;20042;-73
2021/04/11 05:46:55;;;;;;;3.10;1.30;;;11.60;54.00;;;;;;4962280;28;20150;-73
2021/04/11 05:49:31;;;;;;;5.43;1.70;;;11.60;53.90;;;;;;4981146;28;20059;-73
2021/04/11 05:52:01;;;;;;;3.75;1.20;;;11.60;53.90;;;;;;4997626;28;20015;-73
2021/04/11 05:54:32;;;;;;;4.22;1.63;;;11.60;53.90;;;;;;4998035;28;20022;-73
2021/04/11 05:57:13;;;;;;;2.17;1.40;;;11.70;53.90;;;;;;4981432;28;20026;-73
2021/04/11 06:00:19;;;;;;;5.85;1.60;;;11.70;53.70;;;;;;4980186;28;20027;-73
2021/04/11 06:02:48;;;;;;;2.55;1.17;;;11.70;53.50;;;;;;4880762;29;20117;-73
2021/04/11 06:05:36;;;;;;;3.28;1.20;;;11.70;53.30;;;;;;4959200;28;20053;-74
2021/04/11 06:08:19;;;;;;;4.00;1.15;;;11.80;53.20;;;;;;4979013;28;20050;-74
2021/04/11 06:11:20;;;;;;;3.75;1.27;;;11.80;53.00;;;;;;4978079;28;20042;-72
2021/04/11 06:13:57;;;;;;;2.55;1.33;;;11.80;52.90;;;;;;4977577;28;20030;-73
2021/04/11 06:16:26;;;;;;;2.53;1.45;;;11.90;52.80;;;;;;4981646;28;20033;-73
2021/04/11 06:18:54;;;;;;;4.18;2.05;;;12.00;52.80;;;;;;4979801;28;20038;-73
2021/04/11 06:21:45;;;;;;;7.05;2.05;;;12.00;52.80;;;;;;4977442;28;20065;-73
2021/04/11 06:24:38;;;;;;;5.18;2.10;;;12.00;52.70;;;;;;4984518;28;20027;-73
2021/04/11 06:27:30;;;;;;;3.45;2.00;;;12.10;53.00;;;;;;4980106;28;20062;-73
2021/04/11 06:30:16;;;;;;;2.55;1.90;;;12.10;52.70;;;;;;4978992;28;20602;-73
2021/04/11 06:32:48;;;;;;;4.20;1.65;;;12.20;52.30;;;;;;4979252;28;20476;-72
2021/04/11 06:35:18;;;;;;;2.67;1.80;;;12.30;52.20;;;;;;4979139;28;20030;-73
2021/04/11 06:37:46;;;;;;;3.20;1.65;;;12.40;51.90;;;;;;4961877;28;20042;-73
2021/04/11 06:40:38;;;;;;;4.28;1.83;;;12.40;52.00;;;;;;4980887;28;20030;-73
2021/04/11 06:43:48;;;;;;;4.50;2.30;;;12.40;51.70;;;;;;4978549;28;20034;-73
2021/04/11 06:46:26;;;;;;;6.03;2.80;;;12.50;51.80;;;;;;4978032;28;20067;-74
2021/04/11 06:48:59;;;;;;;7.07;3.40;;;12.50;51.50;;;;;;4978248;28;20026;-73
2021/04/11 06:51:55;;;;;;;4.82;3.05;;;12.50;51.60;;;;;;4978650;28;20035;-74
2021/04/11 06:54:45;;;;;;;3.80;1.90;;;12.60;51.40;;;;;;4977577;28;20027;-73
2021/04/11 06:57:19;;;;;;;4.53;2.15;;;12.60;51.10;;;;;;4977614;28;20026;-73
2021/04/11 07:00:03;;;;;;;3.17;1.70;;;12.70;50.90;;;;;;4961071;28;20428;-74
2021/04/11 07:03:10;;;;;;;6.68;1.73;;;12.80;50.50;;;;;;4978492;28;20053;-73
2021/04/11 07:06:16;;;;;;;5.32;1.73;;;12.90;50.50;;;;;;4978853;28;20069;-73
2021/04/11 07:09:10;;;;;;;2.78;1.60;;;13.00;50.30;;;;;;4977738;28;20034;-73
2021/04/11 07:11:45;;;;;;;5.28;2.08;;;13.10;50.30;;;;;;4977112;28;20391;-74
2021/04/11 07:14:48;;;;;;;5.38;2.08;;;13.20;50.30;;;;;;4976801;28;20034;-73
2021/04/11 07:17:32;;;;;;;3.47;2.00;;;13.20;50.30;;;;;;4976616;28;20484;-73
2021/04/11 07:20:10;;;;;;;3.25;1.58;;;13.20;49.50;;;;;;4959097;28;20027;-73
2021/04/11 07:23:13;;;;;;;2.97;1.60;;;13.10;49.30;;;;;;4976477;28;20150;-74
2021/04/11 07:25:50;;;;;;;5.68;1.90;;;13.10;49.40;;;;;;4976102;28;20057;-73
2021/04/11 07:28:38;;;;;;;4.82;1.40;;;13.10;49.40;;;;;;4975308;28;20085;-72
2021/04/11 07:31:34;;;;;;;2.70;1.55;;;13.10;49.60;;;;;;4974637;28;20048;-72
2021/04/11 07:34:31;;;;;;;4.63;1.58;;;13.10;49.70;;;;;;4975486;28;20037;-73
2021/04/11 07:37:34;;;;;;;4.18;1.75;;;13.20;49.50;;;;;;4975095;28;20053;-74
2021/04/11 07:40:20;;;;;;;2.72;1.75;;;13.30;49.40;;;;;;4972663;28;20027;-73
2021/04/11 07:43:17;;;;;;;5.75;1.80;;;13.40;49.00;;;;;;4975505;28;20026;-73
2021/04/11 07:46:07;;;;;;;3.58;1.73;;;13.50;48.60;;;;;;4975087;28;20058;-73
2021/04/11 07:48:42;;;;;;;3.15;1.48;;;13.40;47.80;;;;;;4975807;28;20098;-72
2021/04/11 07:51:37;;;;;;;4.28;1.65;;;13.50;48.00;;;;;;4975661;28;20379;-72
2021/04/11 07:54:28;;;;;;;4.68;2.00;;;13.60;47.50;;;;;;4975393;28;20127;-74
2021/04/11 07:57:08;;;;;;;7.28;2.08;;;13.70;47.90;;;;;;4975226;28;20041;-72
2021/04/11 08:00:02;;;;;;;7.72;2.72;;;13.90;49.00;;;;;;4975451;28;20038;-72
2021/04/11 08:02:53;;;;;;;4.40;1.73;;;14.30;49.50;;;;;;4975248;28;20058;-72
2021/04/11 08:05:57;;;;;;;3.10;1.35;;;14.60;47.30;;;;;;4975321;28;20054;-72
2021/04/11 08:08:55;;;;;;;3.60;1.15;;;14.80;45.00;;;;;;4975264;28;20038;-72
2021/04/11 08:11:26;;;;;;;3.97;1.30;;;15.00;44.40;;;;;;4970884;28;20133;-72
2021/04/11 08:13:54;;;;;;;3.25;1.00;;;15.30;42.60;;;;;;4974947;28;20347;-73
2021/04/11 08:16:29;;;;;;;2.88;1.00;;;15.30;40.70;;;;;;4974856;28;20071;-72
2021/04/11 08:19:01;;;;;;;3.85;1.40;;;15.30;39.60;;;;;;4974963;28;20030;-73
2021/04/11 08:21:40;;;;;;;4.10;1.40;;;15.40;39.80;;;;;;4974847;28;20037;-72
2021/04/11 08:24:11;;;;;;;5.32;2.08;;;15.60;41.20;;;;;;4974830;28;20015;-73
2021/04/11 08:26:55;;;;;;;3.22;1.50;;;16.00;41.00;;;;;;4974724;28;20038;-73
2021/04/11 08:29:30;;;;;;;8.23;1.45;;;16.30;40.40;;;;;;4974809;28;20029;-73
2021/04/11 08:32:17;;;;;;;2.58;0.70;;;16.60;39.40;;;;;;4959673;28;20422;-75
2021/04/11 08:35:02;;;;;;;1.38;0.70;;;16.40;37.50;;;;;;4975248;28;20149;-73
2021/04/11 08:37:51;;;;;;;1.25;0.60;;;16.60;37.40;;;;;;4974547;28;20616;-73
2021/04/11 08:40:38;;;;;;;5.38;1.70;;;16.50;36.60;;;;;;4974566;28;20033;-73
2021/04/11 08:43:28;;;;;;;3.33;0.80;;;16.70;37.00;;;;;;4974825;28;20380;-73
2021/04/11 08:46:11;;;;;;;1.90;0.80;;;17.00;36.60;;;;;;4974714;28;20027;-73
2021/04/11 08:49:05;;;;;;;2.42;1.02;;;17.00;36.10;;;;;;4979066;28;20026;-74
2021/04/11 08:51:53;;;;;;;3.10;0.63;;;17.00;36.00;;;;;;4986123;28;20037;-73
2021/04/11 08:54:45;;;;;;;1.70;0.60;;;16.80;35.70;;;;;;4989821;28;20498;-74
2021/04/11 08:57:36;;;;;;;1.85;0.80;;;16.70;36.00;;;;;;4976372;28;20031;-73
2021/04/11 09:00:38;;;;;;;3.20;1.00;;;16.60;36.40;;;;;;4974863;28;20135;-74
2021/04/11 09:03:43;;;;;;;2.65;0.73;;;16.60;36.30;;;;;;4944745;28;20510;-73
2021/04/11 09:06:34;;;;;;;1.60;0.98;;;16.70;36.60;;;;;;4974185;28;20037;-73
2021/04/11 09:09:27;;;;;;;2.53;0.80;;;16.70;36.80;;;;;;4974194;28;20026;-73
2021/04/11 09:12:18;;;;;;;3.45;0.77;;;16.60;36.50;;;;;;4956930;28;20038;-73
2021/04/11 09:14:57;;;;;;;2.17;0.80;;;16.60;36.80;;;;;;4974567;28;20031;-74
2021/04/11 09:18:01;;;;;;;1.65;0.70;;;16.70;36.70;;;;;;4974513;28;20022;-73
2021/04/11 09:20:30;;;;;;;3.45;0.82;;;16.80;36.80;;;;;;4974200;28;20033;-73
2021/04/11 09:23:27;;;;;;;2.17;0.95;;;16.90;37.00;;;;;;4974483;28;20419;-73
2021/04/11 09:26:01;;;;;;;;;;;17.10;36.70;;;;;;4974616;28;20106;-75
2021/04/11 09:28:47;;;;;;;2.05;0.80;;;17.20;36.20;;;;;;4956858;28;19913;-75
2021/04/11 09:31:51;;;;;;;2.58;0.90;;;17.30;36.20;;;;;;4973017;28;20185;-76
2021/04/11 09:34:48;;;;;;;2.75;1.20;;;17.30;35.70;;;;;;4945837;28;20038;-74
2021/04/11 09:37:51;;;;;;;3.50;1.17;;;17.40;35.30;;;;;;4974075;28;20039;-76
2021/04/11 09:40:50;;;;;;;2.55;1.25;;;17.20;35.20;;;;;;4973832;28;20031;-76
2021/04/11 09:43:48;;;;;;;4.32;0.88;;;17.10;35.30;;;;;;4956396;28;20439;-73
2021/04/11 09:46:19;;;;;;;2.45;0.90;;;17.10;35.50;;;;;;4973840;28;20026;-76
2021/04/11 09:49:07;;;;;;;1.95;0.85;;;16.90;35.50;;;;;;4973805;28;20062;-75
2021/04/11 09:52:00;;;;;;;2.13;0.60;;;16.90;35.60;;;;;;4974118;28;20045;-75
2021/04/11 09:54:37;;;;;;;1.58;0.93;;;17.10;35.90;;;;;;4973774;28;20541;-75
2021/04/11 09:57:36;;;;;;;3.85;0.90;;;17.00;36.50;;;;;;4973635;28;20023;-75
2021/04/11 10:00:22;;;;;;;3.38;0.88;;;17.10;35.90;;;;;;4973502;28;20432;-74
2021/04/11 10:03:07;;;;;;;3.20;0.90;;;17.10;35.60;;;;;;4973709;28;20109;-73
2021/04/11 10:05:51;;;;;;;3.58;0.80;;;17.30;35.60;;;;;;4973329;28;20387;-75
2021/04/11 10:08:44;;;;;;;2.60;1.00;;;17.30;35.40;;;;;;4975147;28;20028;-73
2021/04/11 10:11:34;;;;;;;3.28;0.88;;;17.20;35.20;;;;;;4976877;28;20066;-74
2021/04/11 10:14:22;;;;;;;1.58;0.80;;;17.30;35.30;;;;;;4977231;28;20106;-73
2021/04/11 10:17:27;;;;;;;1.90;1.13;;;17.40;35.40;;;;;;4977128;28;20410;-74
2021/04/11 10:20:12;;;;;;;2.58;0.90;;;17.50;35.70;;;;;;4898634;29;20092;-74
2021/04/11 10:22:58;;;;;;;1.23;0.77;;;17.30;35.60;;;;;;4889388;29;20037;-74
2021/04/11 10:25:29;;;;;;;;;;;17.30;35.90;;;;;;4957481;28;20395;-73
2021/04/11 10:28:17;;;;;;;2.13;0.63;;;17.30;36.00;;;;;;4977021;28;19906;-74
2021/04/11 10:30:45;;;;;;;2.38;0.50;;;17.40;36.20;;;;;;4977229;28;20038;-74
2021/04/11 10:33:21;;;;;;;1.95;0.45;;;17.60;36.10;;;;;;4976884;28;20023;-74
2021/04/11 10:36:01;;;;;;;3.22;0.80;;;17.70;35.80;;;;;;4976818;28;20134;-74
2021/04/11 10:38:37;;;;;;;2.53;1.00;;;17.80;35.20;;;;;;4977018;28;20030;-75
2021/04/11 10:41:35;;;;;;;3.13;0.85;;;17.90;35.10;;;;;;4976747;28;20494;-75
2021/04/11 10:44:06;;;;;;;1.45;0.52;;;18.10;35.10;;;;;;4959224;28;20029;-76
2021/04/11 10:47:01;;;;;;;1.08;0.50;;;18.10;34.90;;;;;;4976696;28;20062;-75
2021/04/11 10:49:53;;;;;;;1.00;0.55;;;17.70;34.80;;;;;;4976754;28;20110;-73
2021/04/11 10:52:46;;;;;;;2.20;0.68;;;17.90;35.20;;;;;;4976598;28;20030;-74
2021/04/11 10:55:49;;;;;;;0.88;0.22;;;18.00;35.30;;;;;;4976748;28;20521;-73
2021/04/11 10:59:01;;;;;;;1.65;0.40;;;18.00;34.90;;;;;;4976393;28;20037;-74
2021/04/11 11:02:02;;;;;;;0.68;0.50;;;18.20;35.20;;;;;;4927272;28;20495;-73
2021/04/11 11:05:01;;;;;;;0.60;0.52;;;18.20;35.00;;;;;;4976469;28;20026;-74
2021/04/11 11:07:40;;;;;;;1.95;0.85;;;18.50;34.90;;;;;;4976494;28;20081;-75
2021/04/11 11:10:46;;;;;;;2.15;0.80;;;18.60;34.70;;;;;;4976210;28;20035;-74
2021/04/11 11:13:53;;;;;;;0.93;0.63;;;18.90;34.40;;;;;;4976256;28;20039;-74
2021/04/11 11:16:38;;;;;;;1.52;0.60;;;19.40;33.90;;;;;;4949679;28;20031;-75
2021/04/11 11:19:15;;;;;;;3.90;0.65;;;19.40;33.10;;;;;;4958174;28;20026;-75
2021/04/11 11:22:04;;;;;;;3.40;0.43;;;19.20;32.70;;;;;;4976053;28;20548;-75
2021/04/11 11:25:01;;;;;;;4.32;0.90;;;19.20;32.70;;;;;;4975449;28;20043;-74
2021/04/11 11:27:41;;;;;;;2.42;0.88;;;18.80;32.90;;;;;;4976104;28;20479;-74
2021/04/11 11:30:19;;;;;;;2.97;1.17;;;18.70;33.20;;;;;;4975788;28;20039;-75
2021/04/11 11:32:59;;;;;;;0.80;0.30;;;18.60;33.30;;;;;;4975773;28;20069;-74
2021/04/11 11:35:25;;;;;;;2.15;0.60;;;19.00;33.40;;;;;;4975646;28;20042;-73
2021/04/11 11:38:14;;;;;;;3.22;0.70;;;19.20;33.30;;;;;;4975731;28;20043;-74
2021/04/11 11:41:04;;;;;;;0.88;0.47;;;19.10;33.10;;;;;;4975497;28;20057;-74
2021/04/11 11:44:02;;;;;;;1.83;0.70;;;19.60;32.70;;;;;;4975806;28;20019;-74
2021/04/11 11:46:37;;;;;;;1.52;0.60;;;19.70;32.30;;;;;;4952769;28;20547;-74
2021/04/11 11:49:22;;;;;;;4.53;0.63;;;19.80;32.30;;;;;;4975804;28;20030;-74
2021/04/11 11:52:22;;;;;;;9.60;1.13;;;19.90;32.60;;;;;;4975494;28;20514;-74
2021/04/11 11:54:54;;;;;;;3.47;0.60;;;20.00;31.50;;;;;;4971036;28;20066;-74
2021/04/11 11:57:24;;;;;;;2.97;0.70;;;20.00;31.30;;;;;;4975593;28;20089;-74
2021/04/11 12:00:09;;;;;;;1.88;0.63;;;19.60;31.30;;;;;;4975383;28;20383;-73
2021/04/11 12:03:16;;;;;;;0.53;0.53;;;19.60;31.40;;;;;;4975274;28;20026;-73
2021/04/11 12:05:58;;;;;;;2.30;0.75;;;19.70;31.40;;;;;;4958406;28;20062;-73
2021/04/11 12:08:46;;;;;;;2.55;0.80;;;19.70;31.10;;;;;;4975271;28;20052;-75
2021/04/11 12:11:35;;;;;;;2.80;0.75;;;19.90;30.70;;;;;;4975008;28;20066;-74
2021/04/11 12:14:20;;;;;;;1.77;0.60;;;19.90;30.40;;;;;;4974987;28;20023;-75
2021/04/11 12:17:08;;;;;;;2.08;0.60;;;19.90;30.40;;;;;;4974911;28;20235;-74
2021/04/11 12:19:42;;;;;;;1.00;0.50;;;20.10;30.10;;;;;;4944965;28;20122;-74
2021/04/11 12:22:35;;;;;;;3.65;0.52;;;20.30;29.70;;;;;;4982634;28;20357;-74
2021/04/11 12:25:11;;;;;;;1.35;0.63;;;20.70;29.40;;;;;;4976722;28;20031;-75
2021/04/11 12:27:39;;;;;;;1.35;0.55;;;20.90;28.80;;;;;;4974849;28;20050;-74
2021/04/11 12:30:12;;;;;;;1.85;0.40;;;20.80;28.00;;;;;;4974509;28;20086;-74
2021/04/11 12:32:56;;;;;;;0.80;0.50;;;20.70;27.90;;;;;;4973450;28;20111;-75
2021/04/11 12:35:27;;;;;;;2.13;0.60;;;20.90;27.60;;;;;;4974644;28;20061;-75
2021/04/11 12:38:18;;;;;;;2.20;0.70;;;21.10;27.60;;;;;;4974610;28;20050;-74
2021/04/11 12:40:46;;;;;;;1.13;0.50;;;21.00;26.90;;;;;;4939673;28;20062;-75
2021/04/11 12:43:21;;;;;;;1.25;0.80;;;20.50;26.70;;;;;;4974645;28;20631;-75
2021/04/11 12:46:24;;;;;;;2.35;0.80;;;20.50;26.80;;;;;;4974487;28;20026;-75
2021/04/11 12:49:37;;;;;;;2.25;0.60;;;20.40;27.00;;;;;;4956226;28;20408;-75
2021/04/11 12:52:09;;;;;;;1.20;0.60;;;20.50;27.10;;;;;;4909998;29;20047;-74
2021/04/11 12:54:53;;;;;;;2.13;0.80;;;20.70;26.60;;;;;;4970534;28;20538;-74
2021/04/11 12:57:29;;;;;;;2.10;0.60;;;20.90;26.40;;;;;;4956874;28;20027;-73
2021/04/11 13:00:11;;;;;;;1.90;0.52;;;20.30;26.10;;;;;;4974229;28;20019;-74
2021/04/11 13:02:58;;;;;;;0.82;0.55;;;20.10;26.00;;;;;;4974359;28;20548;-73
2021/04/11 13:05:49;;;;;;;2.30;0.40;;;20.20;26.40;;;;;;4974276;28;20113;-76
2021/04/11 13:08:33;;;;;;;1.65;0.60;;;20.50;26.60;;;;;;4974250;28;20038;-75
2021/04/11 13:11:23;;;;;;;2.50;0.50;;;20.50;26.30;;;;;;4974185;28;20135;-73
2021/04/11 13:14:04;;;;;;;1.23;0.60;;;20.70;26.10;;;;;;4974315;28;20030;-73
2021/04/11 13:16:38;;;;;;;0.68;0.45;;;20.80;26.00;;;;;;4974317;28;20033;-73
2021/04/11 13:19:18;;;;;;;0.73;0.43;;;20.50;26.00;;;;;;4956687;28;20058;-74
2021/04/11 13:22:04;;;;;;;2.42;0.82;;;20.60;26.00;;;;;;4974263;28;20022;-74
2021/04/11 13:24:33;;;;;;;;;;;20.50;25.90;;;;;;4974714;28;20463;-75
2021/04/11 13:27:17;;;;;;;1.25;0.50;;;20.60;25.80;;;;;;4974023;28;19906;-76
2021/04/11 13:29:47;;;;;;;1.05;0.57;;;20.50;25.70;;;;;;4973932;28;20158;-76
2021/04/11 13:32:34;;;;;;;2.28;0.65;;;20.30;25.70;;;;;;4974077;28;20027;-76
2021/04/11 13:35:15;;;;;;;1.20;0.50;;;20.50;25.80;;;;;;4974099;28;20023;-75
2021/04/11 13:37:46;;;;;;;0.75;0.73;;;20.60;25.80;;;;;;4973701;28;20447;-76
2021/04/11 13:43:27;;;;;;;1.58;0.35;;;21.00;25.70;;;;;;5257209;23;20049;-74
2021/04/11 13:45:53;;;;;;;0.95;0.50;;;20.90;25.70;;;;;;4958218;29;20059;-76
2021/04/11 13:48:37;;;;;;;2.40;0.63;;;20.60;25.60;;;;;;4958207;29;20064;-76
2021/04/11 13:51:21;;;;;;;1.63;0.57;;;20.60;25.50;;;;;;4940742;29;20031;-76
2021/04/11 13:54:00;;;;;;;1.52;0.65;;;20.60;25.30;;;;;;4941134;29;20027;-76
2021/04/11 13:56:41;;;;;;;3.65;0.63;;;20.00;25.30;;;;;;4958190;29;20106;-75